sensor_id;sensor_type;location;lat;lon;timestamp;P1;durP1;ratioP1;P2;durP2;ratioP2
52878;SDS011;38747;53.140;6.498;2024-02-14T00:02:21;7.97;;;4.23;;
52878;SDS011;38747;53.140;6.498;2024-02-14T00:04:47;10.27;;;4.30;;
52878;SDS011;38747;53.140;6.498;2024-02-14T00:07:13;9.60;;;4.27;;
52878;SDS011;38747;53.140;6.498;2024-02-14T00:09:39;10.40;;;4.35;;
52878;SDS011;38747;53.140;6.498;2024-02-14T00:12:05;9.80;;;4.78;;
52878;SDS011;38747;53.140;6.498;2024-02-14T00:14:31;9.53;;;4.20;;
52878;SDS011;38747;53.140;6.498;2024-02-14T00:16:57;8.98;;;4.70;;
52878;SDS011;38747;53.140;6.498;2024-02-14T00:19:24;8.52;;;4.65;;
52878;SDS011;38747;53.140;6.498;2024-02-14T00:21:51;10.80;;;4.67;;
52878;SDS011;38747;53.140;6.498;2024-02-14T00:24:18;9.93;;;4.78;;
52878;SDS011;38747;53.140;6.498;2024-02-14T00:26:44;9.55;;;4.60;;
52878;SDS011;38747;53.140;6.498;2024-02-14T00:29:11;10.43;;;4.63;;
52878;SDS011;38747;53.140;6.498;2024-02-14T00:31:37;10.13;;;4.83;;
52878;SDS011;38747;53.140;6.498;2024-02-14T00:34:02;9.85;;;4.97;;
52878;SDS011;38747;53.140;6.498;2024-02-14T00:36:28;8.10;;;4.60;;
52878;SDS011;38747;53.140;6.498;2024-02-14T00:38:53;10.43;;;4.87;;
52878;SDS011;38747;53.140;6.498;2024-02-14T00:41:22;9.85;;;4.70;;
52878;SDS011;38747;53.140;6.498;2024-02-14T00:43:48;9.70;;;5.18;;
52878;SDS011;38747;53.140;6.498;2024-02-14T00:46:16;10.23;;;4.97;;
52878;SDS011;38747;53.140;6.498;2024-02-14T00:48:42;10.35;;;4.90;;
52878;SDS011;38747;53.140;6.498;2024-02-14T00:51:09;10.98;;;5.15;;
52878;SDS011;38747;53.140;6.498;2024-02-14T00:53:35;8.37;;;4.80;;
52878;SDS011;38747;53.140;6.498;2024-02-14T00:56:00;7.90;;;4.57;;
52878;SDS011;38747;53.140;6.498;2024-02-14T00:58:26;11.80;;;5.77;;
52878;SDS011;38747;53.140;6.498;2024-02-14T01:00:52;8.85;;;5.15;;
52878;SDS011;38747;53.140;6.498;2024-02-14T01:03:17;9.73;;;5.07;;
52878;SDS011;38747;53.140;6.498;2024-02-14T01:05:43;9.17;;;4.90;;
52878;SDS011;38747;53.140;6.498;2024-02-14T01:08:08;9.23;;;4.95;;
52878;SDS011;38747;53.140;6.498;2024-02-14T01:10:34;9.53;;;5.07;;
52878;SDS011;38747;53.140;6.498;2024-02-14T01:13:00;10.10;;;5.22;;
52878;SDS011;38747;53.140;6.498;2024-02-14T01:15:26;11.03;;;4.73;;
52878;SDS011;38747;53.140;6.498;2024-02-14T01:17:51;10.00;;;4.63;;
52878;SDS011;38747;53.140;6.498;2024-02-14T01:20:17;12.63;;;5.87;;
52878;SDS011;38747;53.140;6.498;2024-02-14T01:22:43;9.10;;;4.82;;
52878;SDS011;38747;53.140;6.498;2024-02-14T01:25:11;9.27;;;4.80;;
52878;SDS011;38747;53.140;6.498;2024-02-14T01:27:37;8.35;;;4.53;;
52878;SDS011;38747;53.140;6.498;2024-02-14T01:30:04;9.43;;;4.50;;
52878;SDS011;38747;53.140;6.498;2024-02-14T01:32:33;8.10;;;4.13;;
52878;SDS011;38747;53.140;6.498;2024-02-14T01:34:59;8.15;;;4.43;;
52878;SDS011;38747;53.140;6.498;2024-02-14T01:37:25;7.75;;;3.92;;
52878;SDS011;38747;53.140;6.498;2024-02-14T01:39:52;8.17;;;4.37;;
52878;SDS011;38747;53.140;6.498;2024-02-14T01:42:17;7.60;;;4.03;;
52878;SDS011;38747;53.140;6.498;2024-02-14T01:44:43;7.43;;;3.80;;
52878;SDS011;38747;53.140;6.498;2024-02-14T01:47:09;7.50;;;3.53;;
52878;SDS011;38747;53.140;6.498;2024-02-14T01:49:35;7.13;;;3.78;;
52878;SDS011;38747;53.140;6.498;2024-02-14T01:52:02;7.47;;;4.00;;
52878;SDS011;38747;53.140;6.498;2024-02-14T01:54:32;7.33;;;3.90;;
52878;SDS011;38747;53.140;6.498;2024-02-14T01:56:59;8.15;;;3.72;;
52878;SDS011;38747;53.140;6.498;2024-02-14T01:59:26;7.03;;;3.92;;
52878;SDS011;38747;53.140;6.498;2024-02-14T02:01:52;7.15;;;3.83;;
52878;SDS011;38747;53.140;6.498;2024-02-14T02:04:18;7.07;;;3.83;;
52878;SDS011;38747;53.140;6.498;2024-02-14T02:06:44;7.57;;;3.80;;
52878;SDS011;38747;53.140;6.498;2024-02-14T02:09:09;7.87;;;3.40;;
52878;SDS011;38747;53.140;6.498;2024-02-14T02:11:45;6.43;;;3.40;;
52878;SDS011;38747;53.140;6.498;2024-02-14T02:14:13;6.75;;;3.50;;
52878;SDS011;38747;53.140;6.498;2024-02-14T02:16:39;6.57;;;3.38;;
52878;SDS011;38747;53.140;6.498;2024-02-14T02:19:05;6.47;;;3.47;;
52878;SDS011;38747;53.140;6.498;2024-02-14T02:21:37;6.95;;;3.75;;
52878;SDS011;38747;53.140;6.498;2024-02-14T02:24:03;7.50;;;3.75;;
52878;SDS011;38747;53.140;6.498;2024-02-14T02:26:30;8.10;;;3.70;;
52878;SDS011;38747;53.140;6.498;2024-02-14T02:28:55;6.40;;;2.97;;
52878;SDS011;38747;53.140;6.498;2024-02-14T02:31:22;6.57;;;3.65;;
52878;SDS011;38747;53.140;6.498;2024-02-14T02:33:48;6.70;;;3.23;;
52878;SDS011;38747;53.140;6.498;2024-02-14T02:36:14;6.45;;;3.42;;
52878;SDS011;38747;53.140;6.498;2024-02-14T02:38:41;6.38;;;3.47;;
52878;SDS011;38747;53.140;6.498;2024-02-14T02:41:07;6.15;;;3.33;;
52878;SDS011;38747;53.140;6.498;2024-02-14T02:43:33;6.90;;;3.37;;
52878;SDS011;38747;53.140;6.498;2024-02-14T02:45:59;6.85;;;3.50;;
52878;SDS011;38747;53.140;6.498;2024-02-14T02:48:24;6.47;;;3.42;;
52878;SDS011;38747;53.140;6.498;2024-02-14T02:50:50;7.00;;;3.67;;
52878;SDS011;38747;53.140;6.498;2024-02-14T02:53:16;6.47;;;3.30;;
52878;SDS011;38747;53.140;6.498;2024-02-14T02:55:42;6.35;;;2.88;;
52878;SDS011;38747;53.140;6.498;2024-02-14T02:58:09;7.13;;;3.63;;
52878;SDS011;38747;53.140;6.498;2024-02-14T03:00:35;5.85;;;2.85;;
52878;SDS011;38747;53.140;6.498;2024-02-14T03:03:00;5.85;;;3.08;;
52878;SDS011;38747;53.140;6.498;2024-02-14T03:05:27;5.43;;;2.80;;
52878;SDS011;38747;53.140;6.498;2024-02-14T03:07:56;6.97;;;3.50;;
52878;SDS011;38747;53.140;6.498;2024-02-14T03:10:23;7.28;;;2.97;;
52878;SDS011;38747;53.140;6.498;2024-02-14T03:12:50;6.25;;;2.70;;
52878;SDS011;38747;53.140;6.498;2024-02-14T03:15:16;5.38;;;2.58;;
52878;SDS011;38747;53.140;6.498;2024-02-14T03:17:43;5.83;;;2.20;;
52878;SDS011;38747;53.140;6.498;2024-02-14T03:20:09;6.03;;;2.60;;
52878;SDS011;38747;53.140;6.498;2024-02-14T03:22:42;5.28;;;2.40;;
52878;SDS011;38747;53.140;6.498;2024-02-14T03:25:12;6.57;;;2.50;;
52878;SDS011;38747;53.140;6.498;2024-02-14T03:27:41;7.07;;;2.30;;
52878;SDS011;38747;53.140;6.498;2024-02-14T03:30:07;5.97;;;2.23;;
52878;SDS011;38747;53.140;6.498;2024-02-14T03:32:33;4.68;;;2.05;;
52878;SDS011;38747;53.140;6.498;2024-02-14T03:34:58;5.83;;;2.40;;
52878;SDS011;38747;53.140;6.498;2024-02-14T03:37:25;11.88;;;2.38;;
52878;SDS011;38747;53.140;6.498;2024-02-14T03:39:51;5.65;;;2.40;;
52878;SDS011;38747;53.140;6.498;2024-02-14T03:42:17;6.18;;;2.30;;
52878;SDS011;38747;53.140;6.498;2024-02-14T03:44:44;5.40;;;2.40;;
52878;SDS011;38747;53.140;6.498;2024-02-14T03:47:11;4.47;;;1.95;;
52878;SDS011;38747;53.140;6.498;2024-02-14T03:49:38;5.47;;;2.65;;
52878;SDS011;38747;53.140;6.498;2024-02-14T03:52:05;5.25;;;2.33;;
52878;SDS011;38747;53.140;6.498;2024-02-14T03:54:35;5.32;;;2.33;;
52878;SDS011;38747;53.140;6.498;2024-02-14T03:57:02;5.10;;;2.30;;
52878;SDS011;38747;53.140;6.498;2024-02-14T03:59:29;5.35;;;2.22;;
52878;SDS011;38747;53.140;6.498;2024-02-14T04:01:55;5.95;;;2.60;;
52878;SDS011;38747;53.140;6.498;2024-02-14T04:04:21;5.37;;;2.20;;
52878;SDS011;38747;53.140;6.498;2024-02-14T04:06:47;5.68;;;2.58;;
52878;SDS011;38747;53.140;6.498;2024-02-14T04:09:12;5.20;;;2.40;;
52878;SDS011;38747;53.140;6.498;2024-02-14T04:11:38;6.80;;;3.00;;
52878;SDS011;38747;53.140;6.498;2024-02-14T04:14:03;6.07;;;2.60;;
52878;SDS011;38747;53.140;6.498;2024-02-14T04:16:29;6.25;;;3.05;;
52878;SDS011;38747;53.140;6.498;2024-02-14T04:18:55;6.07;;;2.90;;
52878;SDS011;38747;53.140;6.498;2024-02-14T04:21:21;6.90;;;3.20;;
52878;SDS011;38747;53.140;6.498;2024-02-14T04:23:46;6.70;;;3.37;;
52878;SDS011;38747;53.140;6.498;2024-02-14T04:26:19;7.25;;;3.33;;
52878;SDS011;38747;53.140;6.498;2024-02-14T04:28:46;6.75;;;3.33;;
52878;SDS011;38747;53.140;6.498;2024-02-14T04:31:12;7.80;;;3.30;;
52878;SDS011;38747;53.140;6.498;2024-02-14T04:33:37;7.23;;;3.70;;
52878;SDS011;38747;53.140;6.498;2024-02-14T04:36:03;6.90;;;3.20;;
52878;SDS011;38747;53.140;6.498;2024-02-14T04:38:31;6.72;;;3.35;;
52878;SDS011;38747;53.140;6.498;2024-02-14T04:40:56;7.40;;;3.40;;
52878;SDS011;38747;53.140;6.498;2024-02-14T04:43:23;7.30;;;3.20;;
52878;SDS011;38747;53.140;6.498;2024-02-14T04:45:52;7.63;;;3.60;;
52878;SDS011;38747;53.140;6.498;2024-02-14T04:48:18;7.22;;;3.50;;
52878;SDS011;38747;53.140;6.498;2024-02-14T04:50:44;6.85;;;3.25;;
52878;SDS011;38747;53.140;6.498;2024-02-14T04:53:10;6.03;;;2.63;;
52878;SDS011;38747;53.140;6.498;2024-02-14T04:55:36;6.97;;;3.40;;
52878;SDS011;38747;53.140;6.498;2024-02-14T04:58:01;6.35;;;2.90;;
52878;SDS011;38747;53.140;6.498;2024-02-14T05:00:27;6.37;;;3.20;;
52878;SDS011;38747;53.140;6.498;2024-02-14T05:02:53;7.10;;;3.43;;
52878;SDS011;38747;53.140;6.498;2024-02-14T05:05:18;6.40;;;3.20;;
52878;SDS011;38747;53.140;6.498;2024-02-14T05:07:45;6.93;;;3.13;;
52878;SDS011;38747;53.140;6.498;2024-02-14T05:10:11;7.22;;;3.13;;
52878;SDS011;38747;53.140;6.498;2024-02-14T05:12:37;7.40;;;3.17;;
52878;SDS011;38747;53.140;6.498;2024-02-14T05:15:02;7.13;;;2.95;;
52878;SDS011;38747;53.140;6.498;2024-02-14T05:17:32;8.67;;;3.23;;
52878;SDS011;38747;53.140;6.498;2024-02-14T05:19:57;6.75;;;3.10;;
52878;SDS011;38747;53.140;6.498;2024-02-14T05:22:23;7.40;;;3.37;;
52878;SDS011;38747;53.140;6.498;2024-02-14T05:24:49;6.25;;;2.70;;
52878;SDS011;38747;53.140;6.498;2024-02-14T05:27:15;6.73;;;2.97;;
52878;SDS011;38747;53.140;6.498;2024-02-14T05:29:41;7.03;;;3.27;;
52878;SDS011;38747;53.140;6.498;2024-02-14T05:32:06;7.07;;;3.22;;
52878;SDS011;38747;53.140;6.498;2024-02-14T05:34:34;6.30;;;2.75;;
52878;SDS011;38747;53.140;6.498;2024-02-14T05:37:00;6.43;;;3.00;;
52878;SDS011;38747;53.140;6.498;2024-02-14T05:39:25;7.75;;;3.00;;
52878;SDS011;38747;53.140;6.498;2024-02-14T05:41:52;6.63;;;2.78;;
52878;SDS011;38747;53.140;6.498;2024-02-14T05:44:19;7.50;;;2.70;;
52878;SDS011;38747;53.140;6.498;2024-02-14T05:46:46;6.28;;;2.80;;
52878;SDS011;38747;53.140;6.498;2024-02-14T05:49:11;6.63;;;2.70;;
52878;SDS011;38747;53.140;6.498;2024-02-14T05:51:37;6.50;;;2.43;;
52878;SDS011;38747;53.140;6.498;2024-02-14T05:54:03;6.53;;;2.50;;
52878;SDS011;38747;53.140;6.498;2024-02-14T05:56:28;7.03;;;2.50;;
52878;SDS011;38747;53.140;6.498;2024-02-14T05:58:54;5.80;;;2.50;;
52878;SDS011;38747;53.140;6.498;2024-02-14T06:01:19;5.60;;;2.45;;
52878;SDS011;38747;53.140;6.498;2024-02-14T06:03:45;6.67;;;2.37;;
52878;SDS011;38747;53.140;6.498;2024-02-14T06:06:11;5.65;;;2.22;;
52878;SDS011;38747;53.140;6.498;2024-02-14T06:08:36;7.60;;;2.20;;
52878;SDS011;38747;53.140;6.498;2024-02-14T06:11:02;7.93;;;2.20;;
52878;SDS011;38747;53.140;6.498;2024-02-14T06:13:28;5.25;;;2.28;;
52878;SDS011;38747;53.140;6.498;2024-02-14T06:15:54;6.10;;;2.00;;
52878;SDS011;38747;53.140;6.498;2024-02-14T06:18:19;7.00;;;2.93;;
52878;SDS011;38747;53.140;6.498;2024-02-14T06:20:45;12.05;;;3.00;;
52878;SDS011;38747;53.140;6.498;2024-02-14T06:23:13;10.93;;;3.20;;
52878;SDS011;38747;53.140;6.498;2024-02-14T06:25:41;15.33;;;3.57;;
52878;SDS011;38747;53.140;6.498;2024-02-14T06:28:10;14.98;;;3.88;;
52878;SDS011;38747;53.140;6.498;2024-02-14T06:30:35;16.75;;;3.85;;
52878;SDS011;38747;53.140;6.498;2024-02-14T06:33:01;14.23;;;3.70;;
52878;SDS011;38747;53.140;6.498;2024-02-14T06:35:27;15.60;;;4.38;;
52878;SDS011;38747;53.140;6.498;2024-02-14T06:37:53;16.88;;;3.72;;
52878;SDS011;38747;53.140;6.498;2024-02-14T06:40:19;15.53;;;3.67;;
52878;SDS011;38747;53.140;6.498;2024-02-14T06:42:45;16.88;;;4.28;;
52878;SDS011;38747;53.140;6.498;2024-02-14T06:45:11;19.77;;;4.05;;
52878;SDS011;38747;53.140;6.498;2024-02-14T06:47:36;15.93;;;4.03;;
52878;SDS011;38747;53.140;6.498;2024-02-14T06:50:02;12.40;;;2.90;;
52878;SDS011;38747;53.140;6.498;2024-02-14T06:52:28;11.83;;;4.00;;
52878;SDS011;38747;53.140;6.498;2024-02-14T06:54:53;14.80;;;4.07;;
52878;SDS011;38747;53.140;6.498;2024-02-14T06:57:19;17.37;;;3.80;;
52878;SDS011;38747;53.140;6.498;2024-02-14T06:59:45;14.98;;;3.60;;
52878;SDS011;38747;53.140;6.498;2024-02-14T07:02:10;14.23;;;3.00;;
52878;SDS011;38747;53.140;6.498;2024-02-14T07:04:36;12.88;;;3.08;;
52878;SDS011;38747;53.140;6.498;2024-02-14T07:07:02;22.00;;;4.00;;
52878;SDS011;38747;53.140;6.498;2024-02-14T07:09:28;19.83;;;4.00;;
52878;SDS011;38747;53.140;6.498;2024-02-14T07:11:54;16.23;;;3.67;;
52878;SDS011;38747;53.140;6.498;2024-02-14T07:14:21;20.80;;;3.97;;
52878;SDS011;38747;53.140;6.498;2024-02-14T07:16:47;20.23;;;3.92;;
52878;SDS011;38747;53.140;6.498;2024-02-14T07:19:13;21.85;;;3.80;;
52878;SDS011;38747;53.140;6.498;2024-02-14T07:21:38;17.83;;;3.93;;
52878;SDS011;38747;53.140;6.498;2024-02-14T07:24:05;19.47;;;3.83;;
52878;SDS011;38747;53.140;6.498;2024-02-14T07:26:30;20.57;;;4.00;;
52878;SDS011;38747;53.140;6.498;2024-02-14T07:28:56;21.77;;;4.15;;
52878;SDS011;38747;53.140;6.498;2024-02-14T07:31:22;26.33;;;4.60;;
52878;SDS011;38747;53.140;6.498;2024-02-14T07:33:47;24.90;;;4.20;;
52878;SDS011;38747;53.140;6.498;2024-02-14T07:36:14;23.50;;;4.82;;
52878;SDS011;38747;53.140;6.498;2024-02-14T07:38:40;25.80;;;4.10;;
52878;SDS011;38747;53.140;6.498;2024-02-14T07:41:07;23.63;;;4.63;;
52878;SDS011;38747;53.140;6.498;2024-02-14T07:43:33;29.20;;;4.13;;
52878;SDS011;38747;53.140;6.498;2024-02-14T07:45:59;23.88;;;3.70;;
52878;SDS011;38747;53.140;6.498;2024-02-14T07:48:24;21.97;;;3.70;;
52878;SDS011;38747;53.140;6.498;2024-02-14T07:50:53;25.77;;;4.07;;
52878;SDS011;38747;53.140;6.498;2024-02-14T07:53:18;23.95;;;4.03;;
52878;SDS011;38747;53.140;6.498;2024-02-14T07:55:44;25.60;;;4.20;;
52878;SDS011;38747;53.140;6.498;2024-02-14T07:58:10;28.33;;;3.67;;
52878;SDS011;38747;53.140;6.498;2024-02-14T08:00:36;26.45;;;4.07;;
52878;SDS011;38747;53.140;6.498;2024-02-14T08:03:01;19.13;;;3.40;;
52878;SDS011;38747;53.140;6.498;2024-02-14T08:05:28;32.77;;;4.67;;
52878;SDS011;38747;53.140;6.498;2024-02-14T08:07:55;24.67;;;4.43;;
52878;SDS011;38747;53.140;6.498;2024-02-14T08:10:21;29.23;;;5.50;;
52878;SDS011;38747;53.140;6.498;2024-02-14T08:12:46;21.27;;;3.90;;
52878;SDS011;38747;53.140;6.498;2024-02-14T08:15:12;22.70;;;4.75;;
52878;SDS011;38747;53.140;6.498;2024-02-14T08:17:38;22.30;;;4.30;;
52878;SDS011;38747;53.140;6.498;2024-02-14T08:20:04;23.10;;;4.95;;
52878;SDS011;38747;53.140;6.498;2024-02-14T08:22:30;24.15;;;4.68;;
52878;SDS011;38747;53.140;6.498;2024-02-14T08:24:56;19.43;;;4.50;;
52878;SDS011;38747;53.140;6.498;2024-02-14T08:27:22;26.40;;;4.80;;
52878;SDS011;38747;53.140;6.498;2024-02-14T08:29:48;26.17;;;5.35;;
52878;SDS011;38747;53.140;6.498;2024-02-14T08:32:13;22.97;;;5.70;;
52878;SDS011;38747;53.140;6.498;2024-02-14T08:34:39;17.65;;;4.40;;
52878;SDS011;38747;53.140;6.498;2024-02-14T08:37:05;17.87;;;4.53;;
52878;SDS011;38747;53.140;6.498;2024-02-14T08:39:31;17.90;;;4.57;;
52878;SDS011;38747;53.140;6.498;2024-02-14T08:41:57;20.67;;;5.23;;
52878;SDS011;38747;53.140;6.498;2024-02-14T08:44:23;20.98;;;4.55;;
52878;SDS011;38747;53.140;6.498;2024-02-14T08:46:48;21.00;;;4.83;;
52878;SDS011;38747;53.140;6.498;2024-02-14T08:49:14;22.33;;;4.80;;
52878;SDS011;38747;53.140;6.498;2024-02-14T08:51:40;24.17;;;5.60;;
52878;SDS011;38747;53.140;6.498;2024-02-14T08:54:07;21.20;;;5.35;;
52878;SDS011;38747;53.140;6.498;2024-02-14T08:56:33;25.00;;;5.40;;
52878;SDS011;38747;53.140;6.498;2024-02-14T08:59:00;16.20;;;4.95;;
52878;SDS011;38747;53.140;6.498;2024-02-14T09:01:27;19.90;;;5.45;;
52878;SDS011;38747;53.140;6.498;2024-02-14T09:03:53;19.25;;;5.78;;
52878;SDS011;38747;53.140;6.498;2024-02-14T09:06:19;20.70;;;5.63;;
52878;SDS011;38747;53.140;6.498;2024-02-14T09:08:45;17.57;;;5.67;;
52878;SDS011;38747;53.140;6.498;2024-02-14T09:11:11;15.63;;;5.25;;
52878;SDS011;38747;53.140;6.498;2024-02-14T09:13:40;15.65;;;5.60;;
52878;SDS011;38747;53.140;6.498;2024-02-14T09:16:06;20.30;;;5.97;;
52878;SDS011;38747;53.140;6.498;2024-02-14T09:18:33;18.38;;;5.60;;
52878;SDS011;38747;53.140;6.498;2024-02-14T09:20:58;19.80;;;5.82;;
52878;SDS011;38747;53.140;6.498;2024-02-14T09:23:24;14.40;;;5.70;;
52878;SDS011;38747;53.140;6.498;2024-02-14T09:25:50;15.38;;;5.47;;
52878;SDS011;38747;53.140;6.498;2024-02-14T09:28:16;15.23;;;4.83;;
52878;SDS011;38747;53.140;6.498;2024-02-14T09:30:44;18.33;;;5.18;;
52878;SDS011;38747;53.140;6.498;2024-02-14T09:33:10;16.98;;;6.35;;
52878;SDS011;38747;53.140;6.498;2024-02-14T09:35:37;17.13;;;5.83;;
52878;SDS011;38747;53.140;6.498;2024-02-14T09:38:07;21.83;;;5.97;;
52878;SDS011;38747;53.140;6.498;2024-02-14T09:40:33;17.80;;;6.10;;
52878;SDS011;38747;53.140;6.498;2024-02-14T09:43:00;17.55;;;5.38;;
52878;SDS011;38747;53.140;6.498;2024-02-14T09:45:29;18.33;;;4.82;;
52878;SDS011;38747;53.140;6.498;2024-02-14T09:47:58;18.98;;;4.88;;
52878;SDS011;38747;53.140;6.498;2024-02-14T09:50:24;16.50;;;4.88;;
52878;SDS011;38747;53.140;6.498;2024-02-14T09:52:53;17.13;;;4.93;;
52878;SDS011;38747;53.140;6.498;2024-02-14T09:55:19;15.38;;;5.05;;
52878;SDS011;38747;53.140;6.498;2024-02-14T09:57:48;15.63;;;4.22;;
52878;SDS011;38747;53.140;6.498;2024-02-14T10:00:14;12.10;;;4.18;;
52878;SDS011;38747;53.140;6.498;2024-02-14T10:02:40;17.57;;;4.40;;
52878;SDS011;38747;53.140;6.498;2024-02-14T10:05:06;22.33;;;4.85;;
52878;SDS011;38747;53.140;6.498;2024-02-14T10:07:42;14.73;;;4.32;;
52878;SDS011;38747;53.140;6.498;2024-02-14T10:10:09;13.65;;;3.95;;
52878;SDS011;38747;53.140;6.498;2024-02-14T10:12:35;15.55;;;4.15;;
52878;SDS011;38747;53.140;6.498;2024-02-14T10:15:04;14.13;;;4.37;;
52878;SDS011;38747;53.140;6.498;2024-02-14T10:17:32;12.00;;;4.70;;
52878;SDS011;38747;53.140;6.498;2024-02-14T10:19:59;16.65;;;4.75;;
52878;SDS011;38747;53.140;6.498;2024-02-14T10:22:34;17.83;;;4.80;;
52878;SDS011;38747;53.140;6.498;2024-02-14T10:25:03;14.50;;;4.43;;
52878;SDS011;38747;53.140;6.498;2024-02-14T10:27:34;11.77;;;4.10;;
52878;SDS011;38747;53.140;6.498;2024-02-14T10:30:02;15.82;;;4.22;;
52878;SDS011;38747;53.140;6.498;2024-02-14T10:32:44;10.35;;;3.92;;
52878;SDS011;38747;53.140;6.498;2024-02-14T10:35:13;16.30;;;3.90;;
52878;SDS011;38747;53.140;6.498;2024-02-14T10:37:40;9.32;;;3.50;;
52878;SDS011;38747;53.140;6.498;2024-02-14T10:40:06;8.57;;;2.70;;
52878;SDS011;38747;53.140;6.498;2024-02-14T10:42:33;8.02;;;2.95;;
52878;SDS011;38747;53.140;6.498;2024-02-14T10:45:00;8.82;;;2.50;;
52878;SDS011;38747;53.140;6.498;2024-02-14T10:47:30;6.18;;;2.28;;
52878;SDS011;38747;53.140;6.498;2024-02-14T10:50:00;5.68;;;2.53;;
52878;SDS011;38747;53.140;6.498;2024-02-14T10:52:31;6.33;;;2.47;;
52878;SDS011;38747;53.140;6.498;2024-02-14T10:55:02;9.35;;;2.42;;
52878;SDS011;38747;53.140;6.498;2024-02-14T10:57:29;6.85;;;2.20;;
52878;SDS011;38747;53.140;6.498;2024-02-14T10:59:57;6.90;;;2.45;;
52878;SDS011;38747;53.140;6.498;2024-02-14T11:02:26;6.07;;;2.72;;
52878;SDS011;38747;53.140;6.498;2024-02-14T11:04:55;7.43;;;3.17;;
52878;SDS011;38747;53.140;6.498;2024-02-14T11:07:28;8.45;;;3.38;;
52878;SDS011;38747;53.140;6.498;2024-02-14T11:10:04;9.18;;;3.63;;
52878;SDS011;38747;53.140;6.498;2024-02-14T11:12:34;14.65;;;3.92;;
52878;SDS011;38747;53.140;6.498;2024-02-14T11:15:08;10.27;;;3.88;;
52878;SDS011;38747;53.140;6.498;2024-02-14T11:17:35;11.37;;;4.33;;
52878;SDS011;38747;53.140;6.498;2024-02-14T11:20:11;6.97;;;3.17;;
52878;SDS011;38747;53.140;6.498;2024-02-14T11:23:03;10.25;;;3.70;;
52878;SDS011;38747;53.140;6.498;2024-02-14T11:25:36;11.00;;;3.97;;
52878;SDS011;38747;53.140;6.498;2024-02-14T11:28:18;9.68;;;3.83;;
52878;SDS011;38747;53.140;6.498;2024-02-14T11:30:45;8.77;;;3.23;;
52878;SDS011;38747;53.140;6.498;2024-02-14T11:33:21;7.53;;;3.20;;
52878;SDS011;38747;53.140;6.498;2024-02-14T11:35:50;7.22;;;2.83;;
52878;SDS011;38747;53.140;6.498;2024-02-14T11:38:18;7.68;;;3.25;;
52878;SDS011;38747;53.140;6.498;2024-02-14T11:40:53;6.05;;;2.58;;
52878;SDS011;38747;53.140;6.498;2024-02-14T11:43:21;6.13;;;2.77;;
52878;SDS011;38747;53.140;6.498;2024-02-14T11:45:48;7.43;;;2.78;;
52878;SDS011;38747;53.140;6.498;2024-02-14T11:48:17;7.65;;;2.60;;
52878;SDS011;38747;53.140;6.498;2024-02-14T11:50:45;6.20;;;2.45;;
52878;SDS011;38747;53.140;6.498;2024-02-14T11:53:12;6.40;;;2.53;;
52878;SDS011;38747;53.140;6.498;2024-02-14T11:55:41;7.60;;;2.57;;
52878;SDS011;38747;53.140;6.498;2024-02-14T11:58:10;5.88;;;2.65;;
52878;SDS011;38747;53.140;6.498;2024-02-14T12:00:40;6.90;;;2.30;;
52878;SDS011;38747;53.140;6.498;2024-02-14T12:03:09;9.55;;;2.90;;
52878;SDS011;38747;53.140;6.498;2024-02-14T12:05:37;5.85;;;2.40;;
52878;SDS011;38747;53.140;6.498;2024-02-14T12:08:06;6.30;;;2.47;;
52878;SDS011;38747;53.140;6.498;2024-02-14T12:10:33;5.38;;;2.33;;
52878;SDS011;38747;53.140;6.498;2024-02-14T12:13:05;5.90;;;2.70;;
52878;SDS011;38747;53.140;6.498;2024-02-14T12:15:46;5.78;;;2.35;;
52878;SDS011;38747;53.140;6.498;2024-02-14T12:18:14;7.50;;;2.80;;
52878;SDS011;38747;53.140;6.498;2024-02-14T12:20:41;6.67;;;2.70;;
52878;SDS011;38747;53.140;6.498;2024-02-14T12:23:14;6.63;;;3.22;;
52878;SDS011;38747;53.140;6.498;2024-02-14T12:25:42;5.90;;;3.03;;
52878;SDS011;38747;53.140;6.498;2024-02-14T12:28:12;7.07;;;3.42;;
52878;SDS011;38747;53.140;6.498;2024-02-14T12:30:45;9.10;;;3.47;;
52878;SDS011;38747;53.140;6.498;2024-02-14T12:33:14;7.83;;;3.87;;
52878;SDS011;38747;53.140;6.498;2024-02-14T12:35:44;7.55;;;3.75;;
52878;SDS011;38747;53.140;6.498;2024-02-14T12:38:10;7.47;;;3.78;;
52878;SDS011;38747;53.140;6.498;2024-02-14T12:40:37;8.88;;;4.03;;
52878;SDS011;38747;53.140;6.498;2024-02-14T12:43:03;7.18;;;3.90;;
52878;SDS011;38747;53.140;6.498;2024-02-14T12:45:30;7.13;;;3.70;;
52878;SDS011;38747;53.140;6.498;2024-02-14T12:47:56;8.63;;;3.88;;
52878;SDS011;38747;53.140;6.498;2024-02-14T12:50:22;8.20;;;4.25;;
52878;SDS011;38747;53.140;6.498;2024-02-14T12:52:48;7.83;;;4.13;;
52878;SDS011;38747;53.140;6.498;2024-02-14T12:55:13;7.20;;;3.40;;
52878;SDS011;38747;53.140;6.498;2024-02-14T12:57:40;6.57;;;3.20;;
52878;SDS011;38747;53.140;6.498;2024-02-14T13:00:06;5.78;;;3.10;;
52878;SDS011;38747;53.140;6.498;2024-02-14T13:02:34;8.00;;;3.60;;
52878;SDS011;38747;53.140;6.498;2024-02-14T13:05:00;6.90;;;3.60;;
52878;SDS011;38747;53.140;6.498;2024-02-14T13:07:27;7.53;;;3.30;;
52878;SDS011;38747;53.140;6.498;2024-02-14T13:09:53;7.57;;;3.92;;
52878;SDS011;38747;53.140;6.498;2024-02-14T13:12:20;8.60;;;4.57;;
52878;SDS011;38747;53.140;6.498;2024-02-14T13:14:46;7.50;;;3.80;;
52878;SDS011;38747;53.140;6.498;2024-02-14T13:17:12;7.47;;;3.77;;
52878;SDS011;38747;53.140;6.498;2024-02-14T13:19:37;9.25;;;3.95;;
52878;SDS011;38747;53.140;6.498;2024-02-14T13:22:04;7.47;;;4.00;;
52878;SDS011;38747;53.140;6.498;2024-02-14T13:24:30;7.27;;;3.23;;
52878;SDS011;38747;53.140;6.498;2024-02-14T13:26:56;8.73;;;3.33;;
52878;SDS011;38747;53.140;6.498;2024-02-14T13:29:23;8.13;;;3.58;;
52878;SDS011;38747;53.140;6.498;2024-02-14T13:31:49;7.63;;;3.47;;
52878;SDS011;38747;53.140;6.498;2024-02-14T13:34:15;8.25;;;3.75;;
52878;SDS011;38747;53.140;6.498;2024-02-14T13:36:43;9.10;;;4.50;;
52878;SDS011;38747;53.140;6.498;2024-02-14T13:39:09;8.90;;;3.95;;
52878;SDS011;38747;53.140;6.498;2024-02-14T13:41:37;8.05;;;3.72;;
52878;SDS011;38747;53.140;6.498;2024-02-14T13:44:03;9.63;;;4.20;;
52878;SDS011;38747;53.140;6.498;2024-02-14T13:46:31;10.90;;;4.95;;
52878;SDS011;38747;53.140;6.498;2024-02-14T13:48:57;10.32;;;4.78;;
52878;SDS011;38747;53.140;6.498;2024-02-14T13:51:23;10.67;;;4.37;;
52878;SDS011;38747;53.140;6.498;2024-02-14T13:53:49;9.80;;;5.10;;
52878;SDS011;38747;53.140;6.498;2024-02-14T13:56:14;9.93;;;5.20;;
52878;SDS011;38747;53.140;6.498;2024-02-14T13:58:42;10.70;;;5.40;;
52878;SDS011;38747;53.140;6.498;2024-02-14T14:01:09;10.95;;;5.63;;
52878;SDS011;38747;53.140;6.498;2024-02-14T14:03:35;11.60;;;5.10;;
52878;SDS011;38747;53.140;6.498;2024-02-14T14:06:02;10.93;;;5.20;;
52878;SDS011;38747;53.140;6.498;2024-02-14T14:08:30;10.05;;;5.20;;
52878;SDS011;38747;53.140;6.498;2024-02-14T14:10:56;10.30;;;5.75;;
52878;SDS011;38747;53.140;6.498;2024-02-14T14:13:22;10.47;;;5.47;;
52878;SDS011;38747;53.140;6.498;2024-02-14T14:15:48;11.70;;;5.80;;
52878;SDS011;38747;53.140;6.498;2024-02-14T14:18:14;11.50;;;5.90;;
52878;SDS011;38747;53.140;6.498;2024-02-14T14:20:39;11.15;;;6.32;;
52878;SDS011;38747;53.140;6.498;2024-02-14T14:23:05;13.37;;;6.17;;
52878;SDS011;38747;53.140;6.498;2024-02-14T14:25:31;11.50;;;6.15;;
52878;SDS011;38747;53.140;6.498;2024-02-14T14:28:00;11.48;;;6.30;;
52878;SDS011;38747;53.140;6.498;2024-02-14T14:30:26;11.30;;;6.20;;
52878;SDS011;38747;53.140;6.498;2024-02-14T14:32:51;11.43;;;6.43;;
52878;SDS011;38747;53.140;6.498;2024-02-14T14:35:17;12.90;;;6.40;;
52878;SDS011;38747;53.140;6.498;2024-02-14T14:37:43;12.63;;;6.13;;
52878;SDS011;38747;53.140;6.498;2024-02-14T14:40:08;12.37;;;6.20;;
52878;SDS011;38747;53.140;6.498;2024-02-14T14:42:35;11.25;;;6.07;;